Time;durP1;ratioP1;P1;durP2;ratioP2;P2;SDS_P1;SDS_P2;PMS_P1;PMS_P2;Temp;Humidity;BMP_temperature;BMP_pressure;BME280_temperature;BME280_humidity;BME280_pressure;Samples;Min_cycle;Max_cycle;Signal;HPM_P1;HPM_P2
2023/01/08 00:01:22;;;;;;;50.00;25.60;;;;;;;9.50;71.75;101469.81;5117128;28;20028;-82
2023/01/08 00:03:48;;;;;;;46.38;22.90;;;;;;;9.49;72.01;101478.81;5116258;28;20512;-83
2023/01/08 00:06:16;;;;;;;58.60;22.27;;;;;;;9.37;72.03;101463.47;5112185;28;20497;-83
2023/01/08 00:08:42;;;;;;;45.90;20.88;;;;;;;9.40;71.96;101460.59;5111168;28;20127;-83
2023/01/08 00:11:08;;;;;;;42.17;17.42;;;;;;;9.43;72.40;101483.72;5110941;28;20156;-82
2023/01/08 00:13:33;;;;;;;44.33;15.60;;;;;;;9.43;72.33;101483.72;5111069;28;20114;-82
2023/01/08 00:16:07;;;;;;;35.08;16.13;;;;;;;9.43;72.86;101486.38;5110804;28;20106;-83
2023/01/08 00:18:32;;;;;;;36.83;19.23;;;;;;;9.41;72.00;101494.56;5110836;28;20020;-82
2023/01/08 00:20:58;;;;;;;44.63;17.95;;;;;;;9.23;72.17;101493.88;5111245;28;20016;-82
2023/01/08 00:23:23;;;;;;;91.05;37.70;;;;;;;9.30;72.61;101499.72;5110909;28;20036;-82
2023/01/08 00:25:49;;;;;;;67.28;32.13;;;;;;;9.25;72.40;101496.47;5110697;28;20034;-82
2023/01/08 00:28:15;;;;;;;64.07;31.27;;;;;;;9.22;72.90;101492.16;5110829;28;20118;-82
2023/01/08 00:30:41;;;;;;;48.75;22.08;;;;;;;9.18;73.45;101490.59;5110866;28;20471;-82
2023/01/08 00:33:06;;;;;;;36.92;19.73;;;;;;;9.21;73.67;101494.91;5110585;28;20030;-82
2023/01/08 00:35:32;;;;;;;32.38;17.40;;;;;;;9.21;73.72;101505.66;5111145;28;20645;-82
2023/01/08 00:37:57;;;;;;;32.42;18.40;;;;;;;9.16;74.10;101488.97;5111450;28;20034;-82
2023/01/08 00:40:23;;;;;;;39.25;22.02;;;;;;;9.26;74.26;101503.56;5110729;28;20084;-81
2023/01/08 00:42:48;;;;;;;24.25;13.85;;;;;;;9.24;74.74;101508.16;5110865;28;20031;-82
2023/01/08 00:45:14;;;;;;;23.42;14.23;;;;;;;9.24;74.56;101505.47;5111048;28;20030;-82
2023/01/08 00:47:39;;;;;;;27.10;14.90;;;;;;;9.13;74.63;101492.72;5110571;28;20043;-82
2023/01/08 00:50:05;;;;;;;43.10;17.02;;;;;;;9.27;74.56;101505.28;5110874;28;20028;-82
2023/01/08 00:52:31;;;;;;;28.70;13.52;;;;;;;9.32;74.47;101502.31;5110797;28;20502;-83
2023/01/08 00:54:56;;;;;;;34.80;15.35;;;;;;;9.37;74.12;101497.53;5110647;28;20038;-83
2023/01/08 00:57:21;;;;;;;40.22;20.60;;;;;;;9.32;73.71;101492.44;5110413;28;20032;-82
2023/01/08 00:59:47;;;;;;;55.83;26.45;;;;;;;9.36;73.50;101501.19;5110375;28;20022;-83
2023/01/08 01:02:13;;;;;;;35.85;17.05;;;;;;;9.37;73.44;101495.69;5110254;28;20035;-83
2023/01/08 01:04:38;;;;;;;50.50;25.58;;;;;;;9.41;73.48;101491.00;5110070;28;20088;-82
2023/01/08 01:07:04;;;;;;;39.60;21.80;;;;;;;9.40;73.51;101489.28;5110492;28;20076;-81
2023/01/08 01:09:29;;;;;;;37.33;18.92;;;;;;;9.42;73.85;101490.91;5110234;28;20418;-82
2023/01/08 01:11:55;;;;;;;40.95;23.38;;;;;;;9.37;73.97;101470.66;5114796;28;20070;-83
2023/01/08 01:14:20;;;;;;;43.63;22.00;;;;;;;9.36;73.99;101480.53;5114329;28;20026;-81
2023/01/08 01:16:47;;;;;;;28.85;16.98;;;;;;;9.40;73.70;101484.78;5114514;28;20043;-82
2023/01/08 01:19:14;;;;;;;21.88;13.05;;;;;;;9.40;74.40;101484.78;5114302;28;20030;-82
2023/01/08 01:21:40;;;;;;;21.55;11.90;;;;;;;9.38;74.23;101481.31;5114295;28;20032;-82
2023/01/08 01:24:06;;;;;;;20.05;13.27;;;;;;;9.35;74.55;101476.16;5114339;28;20031;-82
2023/01/08 01:26:32;;;;;;;27.05;13.70;;;;;;;9.47;75.19;101486.13;5114187;28;20028;-83
2023/01/08 01:28:58;;;;;;;37.33;15.50;;;;;;;9.44;75.29;101486.31;5114189;28;20028;-83
2023/01/08 01:31:26;;;;;;;44.08;13.80;;;;;;;9.36;75.46;101479.72;5113862;28;20076;-82
2023/01/08 01:33:51;;;;;;;33.45;14.43;;;;;;;9.39;75.49;101483.03;5114767;28;20016;-82
2023/01/08 01:36:19;;;;;;;26.13;14.93;;;;;;;9.51;75.69;101482.25;5114760;28;20654;-82
2023/01/08 01:38:47;;;;;;;28.05;16.83;;;;;;;9.47;75.32;101467.31;5114414;28;20060;-82
2023/01/08 01:41:26;;;;;;;52.28;27.25;;;;;;;9.54;75.51;101475.84;5113643;28;20106;-82
2023/01/08 01:43:53;;;;;;;53.55;29.77;;;;;;;9.62;75.12;101473.53;5113783;28;20455;-82
2023/01/08 01:46:27;;;;;;;38.03;21.38;;;;;;;9.73;75.29;101477.25;5113870;28;20035;-82
2023/01/08 01:48:56;;;;;;;47.30;17.75;;;;;;;9.74;75.74;101467.38;5113957;28;20117;-82
2023/01/08 01:51:28;;;;;;;33.05;14.98;;;;;;;9.76;75.32;101474.38;5113603;28;20089;-82
2023/01/08 01:53:54;;;;;;;36.05;17.58;;;;;;;9.92;75.38;101468.00;5113579;28;20045;-83
2023/01/08 01:56:19;;;;;;;26.02;15.18;;;;;;;10.02;75.26;101487.94;5113916;28;20118;-81
2023/01/08 01:58:45;;;;;;;23.85;12.80;;;;;;;10.06;74.72;101478.72;5113841;28;20030;-82
2023/01/08 02:01:11;;;;;;;27.83;11.43;;;;;;;10.02;74.18;101483.44;5113540;28;20427;-83
2023/01/08 02:03:38;;;;;;;26.73;12.18;;;;;;;10.04;73.79;101476.13;5113533;28;20498;-83
2023/01/08 02:06:25;;;;;;;20.27;11.23;;;;;;;10.06;73.99;101481.41;5113412;28;20410;-82
2023/01/08 02:09:00;;;;;;;25.27;10.60;;;;;;;10.00;73.38;101488.03;5113089;28;20015;-82
2023/01/08 02:11:47;;;;;;;21.95;10.85;;;;;;;10.14;74.36;101482.66;5113172;28;20124;-82
2023/01/08 02:14:34;;;;;;;25.75;12.57;;;;;;;10.17;74.52;101466.31;5113348;28;20031;-82
2023/01/08 02:17:08;;;;;;;28.20;12.35;;;;;;;10.27;74.09;101466.59;5113589;28;20024;-81
2023/01/08 02:19:44;;;;;;;38.28;11.65;;;;;;;10.24;74.13;101461.41;5113433;28;20042;-82
2023/01/08 02:22:45;;;;;;;27.13;14.15;;;;;;;10.31;74.24;101460.88;5112691;28;20042;-82
2023/01/08 02:25:56;;;;;;;30.13;14.30;;;;;;;10.45;74.63;101469.84;5094815;28;20054;-83
2023/01/08 02:28:24;;;;;;;27.00;12.88;;;;;;;10.51;74.67;101462.25;5050250;28;20128;-82
2023/01/08 02:30:51;;;;;;;15.35;9.73;;;;;;;10.51;74.51;101448.78;5050107;28;20033;-82
2023/01/08 02:33:17;;;;;;;25.63;11.70;;;;;;;10.59;74.50;101467.09;5050090;28;20585;-81
2023/01/08 02:35:53;;;;;;;24.10;10.25;;;;;;;10.55;74.49;101454.84;5049663;28;20029;-82
2023/01/08 02:38:18;;;;;;;16.55;9.50;;;;;;;10.63;74.57;101461.41;5049718;28;20071;-82
2023/01/08 02:41:00;;;;;;;12.70;8.85;;;;;;;10.63;74.99;101461.41;5049887;28;20179;-82
2023/01/08 02:43:34;;;;;;;11.33;8.73;;;;;;;10.65;74.96;101462.16;5049850;28;20041;-82
2023/01/08 02:46:01;;;;;;;13.23;9.32;;;;;;;10.62;75.14;101459.66;5050054;28;20350;-82
2023/01/08 02:48:48;;;;;;;14.77;8.75;;;;;;;10.63;75.03;101469.47;5050009;28;20025;-82
2023/01/08 02:51:21;;;;;;;19.25;9.45;;;;;;;10.49;75.38;101456.09;5049881;28;20056;-83
2023/01/08 02:53:53;;;;;;;20.63;10.35;;;;;;;10.47;75.32;101460.72;5049747;28;20025;-82
2023/01/08 02:56:26;;;;;;;14.18;8.65;;;;;;;10.52;75.54;101471.19;5050132;28;20079;-82
2023/01/08 02:58:53;;;;;;;17.13;10.07;;;;;;;10.51;75.60;101470.31;5032845;28;20506;-82
2023/01/08 03:01:21;;;;;;;17.77;10.05;;;;;;;10.50;75.23;101473.97;5050824;28;20075;-82
2023/01/08 03:03:51;;;;;;;21.17;11.13;;;;;;;10.45;75.16;101454.59;5070236;28;20097;-82
2023/01/08 03:06:18;;;;;;;17.65;10.00;;;;;;;10.46;75.07;101468.91;5119919;28;20063;-82
2023/01/08 03:08:48;;;;;;;15.73;9.35;;;;;;;10.48;74.85;101470.50;5132452;28;20100;-81
2023/01/08 03:11:17;;;;;;;20.63;9.60;;;;;;;10.46;75.01;101455.47;5113596;28;20081;-83
2023/01/08 03:14:07;;;;;;;17.58;10.23;;;;;;;10.50;74.80;101463.19;5112448;28;20031;-82
2023/01/08 03:16:35;;;;;;;19.48;11.65;;;;;;;10.53;74.57;101468.38;5112728;28;20088;-82
2023/01/08 03:19:20;;;;;;;28.05;10.73;;;;;;;10.47;74.40;101463.41;5112472;28;20516;-82
2023/01/08 03:21:47;;;;;;;22.20;8.93;;;;;;;10.53;73.99;101473.75;5112248;28;20059;-82
2023/01/08 03:24:17;;;;;;;14.95;9.52;;;;;;;10.56;73.88;101465.47;5111803;28;20102;-82
2023/01/08 03:26:44;;;;;;;14.57;9.73;;;;;;;10.53;74.25;101468.38;5112276;28;20028;-83
2023/01/08 03:29:14;;;;;;;17.55;9.73;;;;;;;10.62;74.51;101478.50;5111649;28;20590;-83
2023/01/08 03:31:42;;;;;;;15.30;9.75;;;;;;;10.58;74.85;101466.22;5112293;28;20092;-82
2023/01/08 03:34:10;;;;;;;20.23;10.77;;;;;;;10.68;74.58;101478.09;5112042;28;20027;-82
2023/01/08 03:36:40;;;;;;;16.02;9.75;;;;;;;10.67;74.63;101479.03;5112252;28;20028;-82
2023/01/08 03:39:17;;;;;;;19.95;9.80;;;;;;;10.68;75.09;101478.09;5112291;28;20020;-82
2023/01/08 03:41:44;;;;;;;17.50;9.25;;;;;;;10.72;75.25;101468.84;5112103;28;20320;-83
2023/01/08 03:44:10;;;;;;;24.90;9.57;;;;;;;10.76;75.01;101469.50;5112000;28;20123;-82
2023/01/08 03:46:41;;;;;;;21.30;8.77;;;;;;;10.78;75.19;101468.44;5112246;28;20057;-82
2023/01/08 03:49:07;;;;;;;17.48;9.23;;;;;;;10.77;75.36;101466.69;5112046;28;20103;-82
2023/01/08 03:51:44;;;;;;;17.52;8.95;;;;;;;10.83;75.52;101468.09;5113838;28;20100;-84
2023/01/08 03:54:16;;;;;;;13.38;8.95;;;;;;;10.85;75.47;101464.34;5123074;28;20032;-82
2023/01/08 03:56:41;;;;;;;14.83;9.63;;;;;;;10.83;74.96;101465.41;5119338;28;20035;-82
2023/01/08 03:59:07;;;;;;;15.23;9.38;;;;;;;10.80;75.29;101463.78;5135638;28;20022;-82
2023/01/08 04:01:32;;;;;;;12.63;8.77;;;;;;;10.69;74.57;101458.28;5122154;28;20024;-81
2023/01/08 04:03:57;;;;;;;40.17;18.40;;;;;;;10.77;75.06;101461.31;5113703;28;20544;-79
2023/01/08 04:06:23;;;;;;;28.40;15.05;;;;;;;10.76;75.17;101458.75;5114922;28;20091;-84
2023/01/08 04:08:49;;;;;;;18.40;11.18;;;;;;;10.78;75.34;101454.97;5112146;28;20478;-82
2023/01/08 04:11:14;;;;;;;15.55;10.00;;;;;;;10.82;74.68;101459.16;5111739;28;20031;-82
2023/01/08 04:13:40;;;;;;;14.95;9.70;;;;;;;10.80;74.85;101463.78;5111478;28;20153;-83
2023/01/08 04:16:06;;;;;;;15.02;9.63;;;;;;;10.83;74.76;101460.88;5111688;28;20015;-83
2023/01/08 04:18:32;;;;;;;13.00;10.02;;;;;;;10.81;74.99;101467.34;5112022;28;20024;-82
2023/01/08 04:20:58;;;;;;;15.77;9.57;;;;;;;10.77;75.36;101466.69;5111488;28;20035;-82
2023/01/08 04:23:25;;;;;;;22.13;10.82;;;;;;;10.79;75.46;101470.13;5111631;28;20163;-82
2023/01/08 04:25:50;;;;;;;15.30;9.43;;;;;;;10.80;75.46;101466.47;5111488;28;20124;-82
2023/01/08 04:28:16;;;;;;;16.48;12.05;;;;;;;10.84;75.46;101465.31;5058390;28;20065;-82
2023/01/08 04:30:41;;;;;;;14.45;10.45;;;;;;;10.76;75.59;101453.34;5111732;28;20032;-82
2023/01/08 04:33:06;;;;;;;14.45;9.20;;;;;;;10.79;74.96;101459.38;5111183;28;20020;-82
2023/01/08 04:35:32;;;;;;;17.48;10.65;;;;;;;10.69;74.33;101449.34;5111296;28;20442;-82
2023/01/08 04:37:57;;;;;;;11.80;9.48;;;;;;;10.77;74.15;101460.44;5111163;28;20027;-82
2023/01/08 04:40:23;;;;;;;14.77;9.43;;;;;;;10.76;74.15;101469.50;5111322;28;20478;-83
2023/01/08 04:42:48;;;;;;;15.73;10.90;;;;;;;10.67;73.50;101454.81;5111023;28;20080;-82
2023/01/08 04:45:14;;;;;;;15.65;10.18;;;;;;;10.61;73.69;101454.41;5110209;28;20083;-82
2023/01/08 04:47:39;;;;;;;16.20;10.60;;;;;;;10.52;73.66;101450.50;5110914;28;20019;-82
2023/01/08 04:50:05;;;;;;;15.38;9.30;;;;;;;10.59;73.85;101467.09;5110879;28;20048;-83
2023/01/08 04:52:31;;;;;;;24.13;10.63;;;;;;;10.54;74.25;101470.09;5110976;28;20044;-82
2023/01/08 04:54:56;;;;;;;19.50;10.05;;;;;;;10.57;73.77;101475.28;5110725;28;20030;-82
2023/01/08 04:57:22;;;;;;;18.42;11.60;;;;;;;10.56;74.01;101470.84;5110844;28;20020;-82
2023/01/08 04:59:47;;;;;;;24.13;11.95;;;;;;;10.48;73.86;101465.13;5110663;28;20023;-81
2023/01/08 05:02:12;;;;;;;26.70;13.38;;;;;;;10.53;73.45;101476.44;5111293;28;20031;-83
2023/01/08 05:04:38;;;;;;;21.65;11.48;;;;;;;10.60;73.70;101475.06;5111090;28;20027;-82
2023/01/08 05:07:04;;;;;;;21.92;12.90;;;;;;;10.54;73.45;101478.16;5110716;28;20031;-81
2023/01/08 05:09:29;;;;;;;22.38;13.65;;;;;;;10.53;73.31;101479.13;5110697;28;20438;-82
2023/01/08 05:11:55;;;;;;;27.88;13.07;;;;;;;10.51;73.79;101475.69;5110293;28;20084;-82
2023/01/08 05:14:20;;;;;;;19.38;11.55;;;;;;;10.48;73.54;101475.91;5110862;28;20492;-85
2023/01/08 05:16:46;;;;;;;22.83;11.80;;;;;;;10.35;73.86;101475.00;5111068;28;20023;-80
2023/01/08 05:19:12;;;;;;;19.48;12.38;;;;;;;10.45;73.81;101486.84;5113576;28;20405;-82
2023/01/08 05:21:37;;;;;;;18.58;11.77;;;;;;;10.50;73.80;101479.34;5112628;28;20097;-83
2023/01/08 05:24:03;;;;;;;22.63;10.90;;;;;;;10.47;73.66;101484.06;5110357;28;20058;-82
2023/01/08 05:26:29;;;;;;;23.27;11.63;;;;;;;10.46;73.64;101488.56;5110530;28;20058;-86
2023/01/08 05:28:54;;;;;;;16.50;10.90;;;;;;;10.43;73.88;101480.69;5110704;28;20067;-87
2023/01/08 05:31:20;;;;;;;17.90;11.85;;;;;;;10.43;73.96;101483.41;5110749;28;20032;-81
2023/01/08 05:33:45;;;;;;;18.75;10.93;;;;;;;10.50;73.76;101484.72;5109933;28;20028;-79
2023/01/08 05:36:11;;;;;;;20.27;12.70;;;;;;;10.47;74.06;101479.53;5110947;28;20024;-81
2023/01/08 05:38:37;;;;;;;19.50;12.75;;;;;;;10.38;74.23;101477.47;5110675;28;20027;-84
2023/01/08 05:41:03;;;;;;;23.65;13.13;;;;;;;10.46;74.15;101488.56;5111425;28;20076;-84
2023/01/08 05:43:29;;;;;;;28.45;13.18;;;;;;;10.42;74.39;101481.69;5092800;28;20028;-81
2023/01/08 05:46:00;;;;;;;22.70;12.45;;;;;;;10.42;74.71;101487.06;5110881;28;20739;-84
2023/01/08 05:48:27;;;;;;;18.00;12.23;;;;;;;10.42;74.40;101484.38;5092136;28;20020;-79
2023/01/08 05:50:53;;;;;;;20.83;11.95;;;;;;;10.49;74.89;101487.53;5110148;28;20051;-80
2023/01/08 05:53:18;;;;;;;34.28;12.70;;;;;;;10.52;74.60;101474.69;5110453;28;20376;-81
2023/01/08 05:55:44;;;;;;;22.17;12.75;;;;;;;10.67;74.57;101486.28;5111014;28;20579;-85
2023/01/08 05:58:10;;;;;;;18.63;12.90;;;;;;;10.76;74.49;101496.41;5113966;28;20049;-84
2023/01/08 06:00:37;;;;;;;20.63;12.45;;;;;;;10.84;74.80;101494.03;5114214;28;20051;-82
2023/01/08 06:03:03;;;;;;;16.38;11.95;;;;;;;10.85;74.56;101506.53;5114059;28;20539;-80
2023/01/08 06:05:32;;;;;;;18.77;12.93;;;;;;;10.86;74.77;101492.09;5113871;28;20031;-81
2023/01/08 06:07:58;;;;;;;24.48;12.38;;;;;;;10.97;74.73;101499.44;5115166;28;20024;-83
2023/01/08 06:10:24;;;;;;;23.60;12.93;;;;;;;11.02;74.66;101497.28;5114946;28;20035;-81
2023/01/08 06:12:49;;;;;;;22.45;13.60;;;;;;;10.98;74.16;101495.78;5095524;28;20031;-80
2023/01/08 06:15:15;;;;;;;18.95;13.07;;;;;;;11.05;74.47;101518.59;5113980;28;20040;-82
2023/01/08 06:17:41;;;;;;;20.60;14.32;;;;;;;10.99;74.42;101511.81;5113800;28;20058;-80
2023/01/08 06:20:07;;;;;;;32.50;13.52;;;;;;;11.10;74.47;101520.00;5113450;28;20055;-80
2023/01/08 06:22:32;;;;;;;23.13;14.18;;;;;;;11.06;74.96;101499.69;5114111;28;20031;-81
2023/01/08 06:24:58;;;;;;;24.55;14.00;;;;;;;11.22;74.80;101518.31;5114580;27;20031;-83
2023/01/08 06:27:23;;;;;;;20.67;14.85;;;;;;;11.31;75.13;101523.06;5115367;27;20034;-82
2023/01/08 06:29:49;;;;;;;22.80;14.15;;;;;;;11.34;75.32;101510.22;5114301;28;20067;-84
2023/01/08 06:32:14;;;;;;;24.58;14.90;;;;;;;11.45;75.20;101522.94;5113698;28;20019;-81
2023/01/08 06:34:39;;;;;;;31.15;18.60;;;;;;;11.51;75.05;101522.50;5111241;28;20027;-79
2023/01/08 06:37:05;;;;;;;27.73;17.77;;;;;;;11.57;74.79;101526.59;5114788;27;20027;-81
2023/01/08 06:39:30;;;;;;;28.88;16.45;;;;;;;11.63;75.25;101529.72;5114792;28;20074;-85
2023/01/08 06:41:56;;;;;;;36.25;18.13;;;;;;;11.62;74.57;101511.81;5114499;28;20020;-79
2023/01/08 06:44:21;;;;;;;26.63;17.13;;;;;;;11.72;74.33;101521.00;5114118;28;20023;-79
2023/01/08 06:46:47;;;;;;;28.48;16.35;;;;;;;11.75;74.39;101515.38;5112871;28;20442;-77
2023/01/08 06:49:13;;;;;;;30.15;17.30;;;;;;;11.84;74.22;101519.25;5112252;28;20115;-81
2023/01/08 06:51:39;;;;;;;27.67;16.60;;;;;;;11.90;73.79;101513.41;5119102;28;20051;-80
2023/01/08 06:54:04;;;;;;;26.15;15.73;;;;;;;11.86;73.76;101512.75;5111563;28;20023;-83
2023/01/08 06:56:30;;;;;;;33.35;17.48;;;;;;;11.95;74.09;101522.91;5111659;28;20107;-79
2023/01/08 06:58:55;;;;;;;29.30;16.13;;;;;;;11.98;73.50;101532.59;5111485;28;20019;-78
2023/01/08 07:01:21;;;;;;;27.17;15.65;;;;;;;11.90;73.37;101519.66;5111694;28;20101;-82
2023/01/08 07:03:47;;;;;;;36.72;18.52;;;;;;;11.92;73.56;101528.53;5111726;28;20028;-81
2023/01/08 07:06:18;;;;;;;30.67;16.50;;;;;;;11.89;73.88;101536.84;5111579;28;20117;-79
2023/01/08 07:08:44;;;;;;;25.15;14.48;;;;;;;11.90;73.72;101534.97;5110793;28;20100;-80
2023/01/08 07:11:09;;;;;;;24.08;15.32;;;;;;;11.88;74.29;101521.63;5111487;28;20486;-84
2023/01/08 07:13:35;;;;;;;22.80;14.65;;;;;;;11.93;74.25;101518.56;5112113;28;20394;-82
2023/01/08 07:16:08;;;;;;;29.23;15.48;;;;;;;11.91;74.12;101531.31;5111733;28;20028;-84
2023/01/08 07:18:35;;;;;;;26.55;15.25;;;;;;;11.75;75.13;101536.94;5111382;28;20024;-83
2023/01/08 07:21:01;;;;;;;37.40;15.68;;;;;;;11.78;75.43;101535.84;5111484;28;20475;-81
2023/01/08 07:23:27;;;;;;;30.90;16.40;;;;;;;11.97;75.74;101537.13;5111615;28;20058;-81
2023/01/08 07:25:52;;;;;;;27.17;16.73;;;;;;;12.00;75.56;101536.91;5093068;28;20486;-81
2023/01/08 07:28:18;;;;;;;23.25;15.98;;;;;;;12.16;75.44;101533.09;5111452;28;20024;-82
2023/01/08 07:30:43;;;;;;;25.83;15.52;;;;;;;12.23;74.61;101532.50;5111358;28;20072;-80
2023/01/08 07:33:09;;;;;;;27.80;17.00;;;;;;;12.37;74.71;101534.19;5110705;28;20402;-81
2023/01/08 07:35:35;;;;;;;36.15;17.10;;;;;;;12.42;74.50;101542.78;5111382;28;20035;-81
2023/01/08 07:38:01;;;;;;;25.52;15.13;;;;;;;12.29;73.95;101547.41;5111729;28;20784;-83
2023/01/08 07:40:26;;;;;;;23.52;15.90;;;;;;;12.25;74.27;101544.06;5112201;28;20031;-80
2023/01/08 07:42:59;;;;;;;30.38;16.92;;;;;;;12.25;74.83;101541.38;5112062;28;20044;-80
2023/01/08 07:45:26;;;;;;;33.70;17.33;;;;;;;12.31;74.83;101551.69;5110434;28;20036;-83
2023/01/08 07:47:51;;;;;;;27.52;16.98;;;;;;;12.20;75.00;101534.59;5111548;28;20088;-81
2023/01/08 07:50:17;;;;;;;30.90;16.23;;;;;;;12.15;74.83;101534.03;5111012;28;20031;-80
2023/01/08 07:52:42;;;;;;;32.97;17.10;;;;;;;12.08;75.00;101544.41;5111456;28;20023;-81
2023/01/08 07:55:08;;;;;;;25.92;18.05;;;;;;;12.02;75.91;101552.13;5111570;28;20035;-81
2023/01/08 07:57:34;;;;;;;32.70;17.05;;;;;;;11.85;76.02;101534.47;5076202;28;20035;-84
2023/01/08 07:59:59;;;;;;;27.02;16.58;;;;;;;11.86;76.77;101539.72;5115261;28;20031;-87
2023/01/08 08:02:24;;;;;;;38.63;18.23;;;;;;;11.87;76.59;101530.66;5137971;28;20051;-88
2023/01/08 08:04:50;;;;;;;35.15;18.17;;;;;;;11.94;76.54;101536.47;5135752;28;20032;-84
2023/01/08 08:07:15;;;;;;;28.98;16.38;;;;;;;11.84;76.13;101538.97;5123828;28;20110;-82
2023/01/08 08:09:41;;;;;;;32.70;15.85;;;;;;;11.89;76.70;101544.94;5117598;28;20019;-85
2023/01/08 08:12:07;;;;;;;31.75;17.33;;;;;;;11.93;76.58;101551.78;5114254;28;20027;-83
2023/01/08 08:14:33;;;;;;;22.00;13.65;;;;;;;11.65;76.42;101543.94;5111466;28;20054;-83
2023/01/08 08:16:59;;;;;;;28.42;16.23;;;;;;;11.74;76.91;101546.00;5111148;28;20082;-86
2023/01/08 08:19:25;;;;;;;41.45;16.50;;;;;;;11.83;77.06;101545.34;5112263;28;20023;-82
2023/01/08 08:21:50;;;;;;;31.50;17.65;;;;;;;11.81;76.92;101528.41;5111747;28;20504;-87
2023/01/08 08:24:16;;;;;;;38.33;17.63;;;;;;;12.03;77.12;101543.91;5112927;28;20088;-84
2023/01/08 08:26:41;;;;;;;25.77;16.48;;;;;;;11.86;76.24;101531.63;5112735;28;20462;-86
2023/01/08 08:29:07;;;;;;;35.47;16.90;;;;;;;11.91;76.93;101542.09;5110576;28;20030;-86
2023/01/08 08:31:32;;;;;;;31.75;15.93;;;;;;;11.94;76.73;101523.88;5111088;28;20112;-84
2023/01/08 08:33:58;;;;;;;27.13;16.50;;;;;;;11.89;77.05;101542.22;5109825;28;20456;-82
2023/01/08 08:36:29;;;;;;;30.35;17.75;;;;;;;11.84;77.62;101547.06;5109945;28;20521;-84
2023/01/08 08:38:55;;;;;;;28.27;16.88;;;;;;;11.75;77.16;101525.31;5110397;28;20035;-87
2023/01/08 08:41:20;;;;;;;35.33;17.90;;;;;;;11.87;77.48;101541.44;5109046;28;20046;-82
2023/01/08 08:43:46;;;;;;;33.50;18.55;;;;;;;11.93;77.89;101535.63;5109563;28;20024;-80
2023/01/08 08:46:11;;;;;;;41.28;15.07;;;;;;;12.10;77.23;101547.03;5109411;28;20027;-81
2023/01/08 08:48:37;;;;;;;28.95;15.55;;;;;;;12.11;75.98;101543.34;5090846;28;20030;-80
2023/01/08 08:51:03;;;;;;;38.70;14.98;;;;;;;12.06;75.34;101526.63;5110205;28;20055;-82
2023/01/08 08:53:28;;;;;;;34.08;15.43;;;;;;;12.09;75.74;101540.75;5109750;28;20032;-83
2023/01/08 08:55:56;;;;;;;36.35;15.55;;;;;;;12.12;75.91;101534.28;5109424;28;20370;-83
2023/01/08 08:58:21;;;;;;;27.05;16.50;;;;;;;12.14;75.15;101521.56;5110031;28;20463;-85
2023/01/08 09:00:47;;;;;;;33.70;18.63;;;;;;;12.33;75.85;101538.09;5091525;28;20119;-84
2023/01/08 09:03:14;;;;;;;40.00;17.20;;;;;;;12.49;74.61;101533.28;5110064;28;20032;-86
2023/01/08 09:05:41;;;;;;;25.50;15.80;;;;;;;12.50;74.07;101511.59;5111564;28;20386;-88
2023/01/08 09:08:08;;;;;;;23.00;14.77;;;;;;;12.83;73.32;101536.97;5111711;28;20020;-82
2023/01/08 09:10:36;;;;;;;23.25;13.45;;;;;;;12.82;72.39;101541.50;5112270;28;20023;-85
2023/01/08 09:13:01;;;;;;;31.15;16.98;;;;;;;12.83;71.85;101540.56;5122947;28;20024;-81
2023/01/08 09:15:27;;;;;;;44.58;23.58;;;;;;;13.02;71.20;101521.97;5127635;28;20111;-88
2023/01/08 09:17:54;;;;;;;45.67;17.88;;;;;;;13.04;71.88;101520.00;5130903;28;20036;-88
2023/01/08 09:20:20;;;;;;;26.63;15.63;;;;;;;13.00;71.61;101499.59;5104233;28;20040;-87
2023/01/08 09:22:45;;;;;;;25.92;12.63;;;;;;;13.12;70.47;101515.88;5112535;28;20027;-89
2023/01/08 09:25:11;;;;;;;34.25;14.18;;;;;;;12.99;71.85;101511.41;5113310;28;20036;-86
2023/01/08 09:27:36;;;;;;;28.25;14.10;;;;;;;13.01;71.46;101501.31;5128638;28;20031;-85
2023/01/08 09:30:02;;;;;;;31.00;12.75;;;;;;;12.95;71.18;101504.50;5112977;28;20032;-86
2023/01/08 09:32:27;;;;;;;26.38;12.85;;;;;;;13.08;71.06;101505.31;5114763;28;20047;-86
2023/01/08 09:34:53;;;;;;;57.70;14.82;;;;;;;13.30;70.66;101504.47;5098089;28;20478;-85
2023/01/08 09:37:18;;;;;;;25.85;12.15;;;;;;;13.24;69.66;101482.50;5116976;28;20053;-87
2023/01/08 09:39:44;;;;;;;30.38;12.88;;;;;;;12.96;70.71;101479.22;5114556;28;20032;-87
2023/01/08 09:42:11;;;;;;;22.90;11.93;;;;;;;12.97;71.12;101499.84;5116710;28;20039;-84
2023/01/08 09:44:41;;;;;;;27.27;12.52;;;;;;;13.05;71.71;101477.66;5096009;28;20048;-88
2023/01/08 09:47:20;;;;;;;22.77;12.35;;;;;;;13.16;72.34;101493.03;5099391;28;20028;-87
2023/01/08 09:49:48;;;;;;;24.55;9.73;;;;;;;13.04;71.85;101482.19;5117682;28;20051;-88
2023/01/08 09:52:14;;;;;;;29.23;12.15;;;;;;;12.89;72.48;101463.63;5115055;28;20494;-86
2023/01/08 09:54:40;;;;;;;41.55;13.60;;;;;;;12.80;72.96;101480.53;5100040;28;20035;-87
2023/01/08 09:57:12;;;;;;;35.45;13.38;;;;;;;12.70;73.01;101476.81;5115260;28;20259;-88
2023/01/08 09:59:38;;;;;;;30.27;10.90;;;;;;;12.60;74.42;101487.44;5115315;28;20123;-86
2023/01/08 10:02:08;;;;;;;28.02;11.18;;;;;;;12.25;74.53;101473.06;5115568;28;20040;-87
2023/01/08 10:04:34;;;;;;;27.70;12.65;;;;;;;12.21;75.56;101485.06;5073389;28;20722;-87
2023/01/08 10:07:00;;;;;;;34.20;14.55;;;;;;;12.30;76.02;101484.34;5073094;28;20037;-88
2023/01/08 10:09:31;;;;;;;24.25;12.52;;;;;;;12.19;76.27;101468.13;5073426;28;20569;-88
2023/01/08 10:12:00;;;;;;;34.80;12.43;;;;;;;12.16;75.86;101473.75;5056715;28;20071;-88
2023/01/08 10:14:37;;;;;;;22.30;9.48;;;;;;;12.04;75.83;101466.56;5055983;28;20040;-87
2023/01/08 10:17:22;;;;;;;22.80;11.48;;;;;;;11.92;76.68;101468.34;5072825;28;20043;-89
2023/01/08 10:19:48;;;;;;;33.65;12.05;;;;;;;11.71;77.10;101449.19;5073158;28;20127;-87
2023/01/08 10:22:20;;;;;;;18.52;10.05;;;;;;;11.58;76.57;101440.28;5072902;28;20052;-88
2023/01/08 10:24:46;;;;;;;36.03;12.20;;;;;;;11.73;77.58;101455.34;5074146;28;20037;-88
2023/01/08 10:27:36;;;;;;;21.65;10.63;;;;;;;11.67;77.50;101460.28;5072977;28;20107;-88
2023/01/08 10:30:06;;;;;;;38.70;12.20;;;;;;;11.72;77.16;101441.97;5072833;28;20080;-87
2023/01/08 10:32:35;;;;;;;28.02;11.27;;;;;;;11.80;77.12;101445.81;5073502;28;20063;-89
2023/01/08 10:35:05;;;;;;;15.52;8.88;;;;;;;11.69;76.76;101440.34;5086578;28;20410;-89
2023/01/08 10:37:43;;;;;;;29.08;10.90;;;;;;;11.81;76.96;101442.16;5099847;28;20059;-89
2023/01/08 10:40:28;;;;;;;19.02;10.82;;;;;;;11.84;76.80;101433.00;5115594;28;20575;-88
2023/01/08 10:42:57;;;;;;;18.05;8.13;;;;;;;11.60;75.41;101427.53;5114572;28;20182;-88
2023/01/08 10:45:26;;;;;;;15.10;8.98;;;;;;;11.49;75.80;101416.69;5097919;28;20110;-89
2023/01/08 10:47:56;;;;;;;25.73;9.80;;;;;;;11.59;75.90;101417.72;5105816;28;20026;-87
2023/01/08 10:50:26;;;;;;;26.33;11.25;;;;;;;11.61;76.03;101428.41;5109549;28;20042;-90
2023/01/08 10:52:55;;;;;;;21.02;9.43;;;;;;;11.50;76.37;101436.41;5115875;28;20094;-88
2023/01/08 10:55:30;;;;;;;15.15;11.13;;;;;;;11.59;75.80;101424.97;5115588;28;20039;-88
2023/01/08 10:58:01;;;;;;;26.05;12.45;;;;;;;11.68;76.94;101417.06;5116354;28;20043;-88
2023/01/08 11:00:32;;;;;;;23.75;11.73;;;;;;;11.76;76.66;101420.09;5116344;28;20028;-88
2023/01/08 11:03:01;;;;;;;14.85;10.10;;;;;;;11.69;76.19;101401.75;5120839;28;20098;-87
2023/01/08 11:05:32;;;;;;;21.90;12.32;;;;;;;11.86;76.19;101421.13;5116586;28;20114;-88
2023/01/08 11:07:58;;;;;;;29.50;16.75;;;;;;;11.90;75.94;101419.94;5115543;28;20440;-88
2023/01/08 11:10:26;;;;;;;18.75;11.02;;;;;;;11.97;75.51;101417.63;5115078;28;20038;-86
2023/01/08 11:12:57;;;;;;;31.27;12.52;;;;;;;11.82;75.88;101403.47;5113941;28;20024;-85
2023/01/08 11:15:28;;;;;;;19.73;10.10;;;;;;;11.92;76.41;101415.31;5113075;28;20495;-86